»·PEaware :: N815M KSAC-KTVL

N815M :: KSAC-KTVL

FLIGHT INFORMATION

Flight Status: Arrived
Operator: Privately registered:
United States
More flights under this callsign
Pilot: Robert C. (30425)
Aircraft: BEECH AIRCRAFT DEBONAIR BONANZA
(BE33)
More flights by this aircraft type
Origin: KSAC Sacramento Executive
United States
Destination: KTVL Lake Tahoe
United States
More flights between these airports :: More routes between these airports
Route: HNW
File this flight plan on PilotEdge
Remarks:
Altitude:
(Current/Filed)
9,000ft
Speed:
(Current/Filed)
150kts
Departed: 20-Oct-20 04:59 PM
Arrived: 20-Oct-20 05:45 PM
Distance/Time
Traveled:
74nm/0:46
Distance/Time
To Go:
Arrived

Flight Plot

Page will automatically refresh every two minutes.

Flight plan parsing failed; only flown route is shown


Map Options




Map Legend


Flown Route
Filed Route
Departure Airport
Arrival Airport
Navaid (VOR, NDB)
Fix

Horizontal Profiles

Position Reports

Time Latitude Longitude Heading Altitude Ground
Speed
20-Oct-20 16:40 38.520041 -121.495697 186 24ft 0kts
20-Oct-20 16:41 38.520028 -121.495699 182 24ft 0kts
20-Oct-20 16:42 38.520014 -121.495700 186 24ft 0kts
20-Oct-20 16:43 38.520014 -121.495700 186 24ft 0kts
20-Oct-20 16:44 38.520014 -121.495700 186 24ft 0kts
20-Oct-20 16:45 38.520014 -121.495700 186 24ft 0kts
20-Oct-20 16:46 38.520014 -121.495700 186 24ft 0kts
20-Oct-20 16:47 38.520014 -121.495700 186 24ft 0kts
20-Oct-20 16:48 38.520014 -121.495700 186 24ft 0kts
20-Oct-20 16:49 38.520014 -121.495700 186 24ft 0kts
20-Oct-20 16:50 38.520014 -121.495700 186 24ft 0kts
20-Oct-20 16:51 38.520014 -121.495700 186 24ft 0kts
20-Oct-20 16:52 38.520014 -121.495700 186 24ft 0kts
20-Oct-20 16:53 38.519719 -121.494215 76 24ft 7kts
20-Oct-20 16:54 38.519518 -121.492670 100 24ft 13kts
20-Oct-20 16:55 38.519472 -121.490506 131 24ft 0kts
20-Oct-20 16:56 38.519255 -121.490354 125 24ft 0kts
20-Oct-20 16:57 38.518732 -121.489496 205 23ft 12kts
20-Oct-20 16:58 38.497107 -121.506611 211 528ft 120kts
20-Oct-20 16:59 38.469370 -121.497813 122 1588ft 131kts
20-Oct-20 17:00 38.447306 -121.456997 125 2421ft 141kts
20-Oct-20 17:01 38.433462 -121.411070 69 3255ft 140kts
20-Oct-20 17:02 38.454881 -121.368542 54 4069ft 140kts
20-Oct-20 17:03 38.474599 -121.326020 60 4862ft 139kts
20-Oct-20 17:04 38.493210 -121.283327 59 5657ft 136kts
20-Oct-20 17:05 38.511417 -121.241640 59 6450ft 132kts
20-Oct-20 17:06 38.529285 -121.200768 59 7175ft 132kts
20-Oct-20 17:07 38.547498 -121.159117 59 7782ft 135kts
20-Oct-20 17:08 38.565823 -121.117110 60 8380ft 135kts
20-Oct-20 17:09 38.583750 -121.075929 60 8972ft 128kts
20-Oct-20 17:10 38.601605 -121.034927 61 9275ft 141kts
20-Oct-20 17:11 38.621247 -120.989527 61 9292ft 145kts
20-Oct-20 17:12 38.641156 -120.943529 61 9317ft 149kts
20-Oct-20 17:13 38.662006 -120.897161 59 9329ft 149kts
20-Oct-20 17:14 38.683920 -120.851902 58 9335ft 147kts
20-Oct-20 17:15 38.705500 -120.807340 58 9341ft 146kts
20-Oct-20 17:16 38.725279 -120.761420 65 9343ft 146kts
20-Oct-20 17:17 38.742643 -120.713081 65 9343ft 146kts
20-Oct-20 17:18 38.757284 -120.662967 71 9343ft 146kts
20-Oct-20 17:19 38.763238 -120.609632 83 9343ft 146kts
20-Oct-20 17:20 38.770684 -120.557260 78 9343ft 146kts
20-Oct-20 17:21 38.778863 -120.505694 78 9343ft 146kts
20-Oct-20 17:22 38.786989 -120.454469 78 9354ft 145kts
20-Oct-20 17:23 38.795053 -120.403331 78 9388ft 144kts
20-Oct-20 17:24 38.803171 -120.353324 68 9698ft 141kts
20-Oct-20 17:25 38.838425 -120.334378 24 10110ft 140kts
20-Oct-20 17:26 38.873605 -120.312651 27 10509ft 139kts
20-Oct-20 17:27 38.908173 -120.290546 27 10872ft 141kts
20-Oct-20 17:28 38.944887 -120.266963 25 10990ft 155kts
20-Oct-20 17:29 38.984749 -120.241409 24 10998ft 160kts
20-Oct-20 17:30 39.024769 -120.215725 24 10999ft 160kts
20-Oct-20 17:31 39.064813 -120.190002 24 10996ft 159kts
20-Oct-20 17:32 39.104532 -120.164431 24 10992ft 158kts
20-Oct-20 17:33 39.144302 -120.138801 24 10988ft 158kts
20-Oct-20 17:34 39.183748 -120.113343 23 10983ft 158kts
20-Oct-20 17:35 39.198614 -120.067060 106 10981ft 164kts
20-Oct-20 17:36 39.181948 -120.011672 111 10983ft 165kts
20-Oct-20 17:37 39.147481 -119.977688 177 10514ft 181kts
20-Oct-20 17:38 39.095874 -119.976108 179 9835ft 188kts
20-Oct-20 17:39 39.044423 -119.975072 179 9278ft 153kts
20-Oct-20 17:40 39.012327 -119.974134 180 8902ft 115kts
20-Oct-20 17:41 38.979620 -119.978573 188 8006ft 119kts
20-Oct-20 17:42 38.947916 -119.984303 187 7207ft 105kts
20-Oct-20 17:43 38.919836 -119.989334 187 6643ft 98kts
20-Oct-20 17:44 38.897230 -119.994344 200 6262ft 30kts
20-Oct-20 17:45 38.892488 -119.996546 232 6264ft 0kts
20-Oct-20 17:46 38.893180 -119.997747 321 6265ft 4kts

Navigation Log

Ident Type
Flight plan parsing failed, navigation log unavailable